Time;durP1;ratioP1;P1;durP2;ratioP2;P2;SDS_P1;SDS_P2;PMS_P1;PMS_P2;Temp;Humidity;BMP_temperature;BMP_pressure;BME280_temperature;BME280_humidity;BME280_pressure;Samples;Min_cycle;Max_cycle;Signal;HPM_P1;HPM_P2
2021/08/05 00:00:42;;;;;;;1.00;0.90;;;23.10;51.00;;;;;;5116348;28;20130;-54
2021/08/05 00:03:08;;;;;;;1.20;0.90;;;23.10;51.00;;;;;;5133485;27;20051;-55
2021/08/05 00:05:33;;;;;;;1.00;0.88;;;23.10;51.10;;;;;;5134646;28;20055;-51
2021/08/05 00:07:59;;;;;;;0.93;0.93;;;23.10;51.10;;;;;;5135145;28;20078;-53
2021/08/05 00:10:25;;;;;;;1.13;0.90;;;23.10;51.10;;;;;;5134919;28;20432;-50
2021/08/05 00:12:50;;;;;;;1.33;1.00;;;23.10;51.10;;;;;;5135112;28;20055;-50
2021/08/05 00:15:16;;;;;;;0.82;0.80;;;23.10;51.10;;;;;;5134567;28;20043;-52
2021/08/05 00:17:42;;;;;;;0.95;0.90;;;23.10;51.10;;;;;;5134529;28;20049;-53
2021/08/05 00:20:08;;;;;;;1.35;1.20;;;23.10;51.20;;;;;;5134253;28;20054;-52
2021/08/05 00:22:34;;;;;;;1.10;1.00;;;23.10;51.10;;;;;;5134739;28;20079;-52
2021/08/05 00:24:59;;;;;;;1.00;0.88;;;23.10;51.10;;;;;;5134488;28;20440;-51
2021/08/05 00:27:25;;;;;;;1.40;1.13;;;23.10;51.10;;;;;;5134285;28;20043;-55
2021/08/05 00:29:50;;;;;;;1.05;0.95;;;23.10;51.20;;;;;;5134217;28;20047;-54
2021/08/05 00:32:16;;;;;;;1.90;1.02;;;23.10;51.20;;;;;;5134375;28;20082;-54
2021/08/05 00:34:42;;;;;;;1.65;1.10;;;23.10;51.20;;;;;;5115668;28;20494;-49
2021/08/05 00:37:07;;;;;;;1.85;1.00;;;23.10;51.20;;;;;;5134149;28;20050;-50
2021/08/05 00:39:34;;;;;;;1.00;0.80;;;23.10;51.20;;;;;;5116017;28;20051;-51
2021/08/05 00:42:02;;;;;;;0.90;0.75;;;23.10;51.20;;;;;;5134152;28;20099;-51
2021/08/05 00:44:30;;;;;;;0.70;0.70;;;23.10;51.20;;;;;;5134064;28;20053;-52
2021/08/05 00:46:57;;;;;;;0.80;0.80;;;23.10;51.20;;;;;;5116167;28;20116;-51
2021/08/05 00:49:23;;;;;;;1.15;0.98;;;23.10;51.20;;;;;;5134022;28;20126;-49
2021/08/05 00:51:48;;;;;;;1.00;0.90;;;23.10;51.20;;;;;;5133772;28;20078;-52
2021/08/05 00:54:16;;;;;;;1.27;1.15;;;23.10;51.30;;;;;;5115960;28;20051;-51
2021/08/05 00:56:41;;;;;;;0.90;0.80;;;23.10;51.30;;;;;;5134086;28;20054;-54
2021/08/05 00:59:07;;;;;;;1.38;1.10;;;23.10;51.30;;;;;;5115439;28;20504;-53
2021/08/05 01:01:49;;;;;;;1.23;0.80;;;23.10;51.30;;;;;;5115415;28;20047;-54
2021/08/05 01:04:15;;;;;;;0.80;0.80;;;23.00;51.30;;;;;;5114923;28;20059;-50
2021/08/05 01:07:09;;;;;;;0.90;0.85;;;23.10;51.40;;;;;;5133440;28;20108;-53
2021/08/05 01:09:45;;;;;;;2.03;1.02;;;23.10;51.30;;;;;;5125236;28;20047;-49
2021/08/05 01:12:35;;;;;;;0.80;0.80;;;23.00;51.30;;;;;;5114426;28;20426;-46
2021/08/05 01:15:13;;;;;;;0.93;0.93;;;23.00;51.30;;;;;;5115041;28;20055;-50
2021/08/05 01:17:44;;;;;;;1.15;0.80;;;23.00;51.30;;;;;;5133558;28;20078;-52
2021/08/05 01:20:15;;;;;;;1.33;1.02;;;23.00;51.30;;;;;;5113827;28;20094;-50
2021/08/05 01:23:10;;;;;;;0.90;0.90;;;23.00;51.30;;;;;;5133978;28;20403;-50
2021/08/05 01:25:51;;;;;;;1.50;0.98;;;23.00;51.40;;;;;;5133841;28;20047;-54
2021/08/05 01:28:17;;;;;;;1.95;0.98;;;23.00;51.40;;;;;;5133825;28;20051;-51
2021/08/05 01:30:45;;;;;;;0.95;0.90;;;23.00;51.40;;;;;;5133476;28;20043;-51
2021/08/05 01:33:12;;;;;;;0.88;0.80;;;23.00;51.40;;;;;;5133496;28;20079;-53
2021/08/05 01:35:41;;;;;;;0.77;0.77;;;23.00;51.40;;;;;;5115359;28;20055;-51
2021/08/05 01:38:10;;;;;;;1.17;1.08;;;23.00;51.40;;;;;;5114691;28;20445;-51
2021/08/05 01:40:36;;;;;;;1.02;0.90;;;23.00;51.50;;;;;;5114893;28;20130;-52
2021/08/05 01:43:02;;;;;;;1.00;0.90;;;23.00;51.50;;;;;;5114870;28;20158;-52
2021/08/05 01:45:28;;;;;;;0.80;0.80;;;23.00;51.40;;;;;;5115415;28;20447;-49
2021/08/05 01:47:55;;;;;;;0.90;0.85;;;23.00;51.50;;;;;;5114538;28;20142;-52
2021/08/05 01:50:21;;;;;;;0.75;0.75;;;23.00;51.50;;;;;;5114657;28;20445;-49
2021/08/05 01:52:48;;;;;;;1.02;0.93;;;23.00;51.50;;;;;;5114685;28;20103;-53
2021/08/05 01:55:14;;;;;;;1.13;0.73;;;23.00;51.50;;;;;;5114748;28;20137;-49
2021/08/05 01:57:39;;;;;;;1.13;0.68;;;23.00;51.50;;;;;;5133560;28;20044;-51
2021/08/05 02:00:07;;;;;;;0.68;0.68;;;23.00;51.50;;;;;;5114544;28;20238;-50
2021/08/05 02:02:38;;;;;;;0.80;0.80;;;23.00;51.50;;;;;;5133164;28;20054;-50
2021/08/05 02:05:20;;;;;;;2.05;1.00;;;22.90;51.40;;;;;;5114565;28;20380;-53
2021/08/05 02:08:05;;;;;;;1.00;0.90;;;23.00;51.50;;;;;;5114592;28;20416;-49
2021/08/05 02:10:37;;;;;;;1.00;0.90;;;22.90;51.40;;;;;;5114797;28;20051;-52
2021/08/05 02:13:09;;;;;;;0.70;0.70;;;23.00;51.50;;;;;;5114830;28;20159;-55
2021/08/05 02:15:36;;;;;;;1.10;1.05;;;23.00;51.50;;;;;;5114399;28;20047;-52
2021/08/05 02:18:06;;;;;;;1.08;0.98;;;23.00;51.50;;;;;;5132770;28;20050;-53
2021/08/05 02:20:32;;;;;;;0.88;0.88;;;23.00;51.60;;;;;;5132855;28;20490;-53
2021/08/05 02:22:58;;;;;;;1.23;0.90;;;22.90;51.50;;;;;;5114269;28;20058;-51
2021/08/05 02:25:24;;;;;;;1.00;0.88;;;22.90;51.60;;;;;;5132802;27;20607;-53
2021/08/05 02:27:50;;;;;;;0.93;0.88;;;22.90;51.60;;;;;;5117062;28;20078;-51
2021/08/05 02:30:17;;;;;;;1.33;0.80;;;22.90;51.60;;;;;;5136721;28;20505;-50
2021/08/05 02:32:43;;;;;;;0.90;0.80;;;22.90;51.60;;;;;;5118270;28;20058;-52
2021/08/05 02:35:11;;;;;;;1.40;0.90;;;22.90;51.60;;;;;;5117921;28;20051;-51
2021/08/05 02:37:38;;;;;;;1.02;0.95;;;22.90;51.60;;;;;;5136346;28;20046;-52
2021/08/05 02:40:04;;;;;;;1.15;0.80;;;22.90;51.60;;;;;;5116065;28;20115;-52
2021/08/05 02:42:31;;;;;;;0.90;0.77;;;22.90;51.60;;;;;;5136211;28;20133;-51
2021/08/05 02:44:57;;;;;;;0.80;0.80;;;22.90;51.60;;;;;;5134720;28;20059;-48
2021/08/05 02:47:23;;;;;;;0.95;0.80;;;22.90;51.60;;;;;;5117498;28;20376;-50
2021/08/05 02:49:53;;;;;;;0.82;0.77;;;22.90;51.60;;;;;;5135882;28;20058;-51
2021/08/05 02:52:19;;;;;;;0.98;0.90;;;22.90;51.60;;;;;;5135936;28;20059;-51
2021/08/05 02:54:45;;;;;;;0.95;0.77;;;22.90;51.70;;;;;;5117358;28;20046;-52
2021/08/05 02:57:11;;;;;;;1.42;1.00;;;22.90;51.70;;;;;;5136263;28;20459;-53
2021/08/05 02:59:38;;;;;;;0.60;0.60;;;22.90;51.70;;;;;;5115720;28;20059;-50
2021/08/05 03:02:05;;;;;;;0.65;0.65;;;22.90;51.70;;;;;;5117356;28;20406;-49
2021/08/05 03:04:34;;;;;;;0.90;0.70;;;22.90;51.70;;;;;;5135679;28;20051;-47
2021/08/05 03:07:01;;;;;;;0.90;0.90;;;22.90;51.70;;;;;;5135601;28;20058;-50
2021/08/05 03:09:28;;;;;;;1.38;1.10;;;22.90;51.70;;;;;;5135614;28;20043;-51
2021/08/05 03:11:54;;;;;;;0.80;0.80;;;22.90;51.70;;;;;;5136189;28;20126;-49
2021/08/05 03:14:19;;;;;;;1.50;1.02;;;22.90;51.70;;;;;;5135503;28;20567;-50
2021/08/05 03:16:45;;;;;;;1.40;0.82;;;22.80;51.70;;;;;;5135466;28;20728;-49
2021/08/05 03:19:11;;;;;;;1.25;0.98;;;22.90;51.70;;;;;;5134712;28;20058;-52
2021/08/05 03:21:36;;;;;;;1.05;0.90;;;22.90;51.70;;;;;;5135090;28;20486;-51
2021/08/05 03:24:02;;;;;;;1.45;0.85;;;22.90;51.80;;;;;;5135401;28;20112;-52
2021/08/05 03:26:28;;;;;;;0.75;0.75;;;22.90;51.80;;;;;;5134881;28;20050;-52
2021/08/05 03:28:54;;;;;;;0.80;0.70;;;22.80;51.70;;;;;;5135359;28;20047;-55
2021/08/05 03:31:19;;;;;;;1.50;1.10;;;22.90;51.80;;;;;;5135850;28;20046;-51
2021/08/05 03:33:45;;;;;;;0.80;0.80;;;22.90;51.80;;;;;;5135143;28;20051;-52
2021/08/05 03:36:10;;;;;;;0.77;0.77;;;22.80;51.80;;;;;;5135689;28;20571;-48
2021/08/05 03:38:36;;;;;;;0.65;0.65;;;22.80;51.80;;;;;;5134833;27;20509;-52
2021/08/05 03:41:03;;;;;;;1.10;1.00;;;22.80;51.80;;;;;;5134995;28;20498;-53
2021/08/05 03:43:28;;;;;;;1.05;0.90;;;22.80;51.80;;;;;;5135352;28;20418;-50
2021/08/05 03:45:54;;;;;;;0.80;0.80;;;22.80;51.80;;;;;;5135090;28;20055;-51
2021/08/05 03:48:20;;;;;;;1.00;1.00;;;22.80;51.80;;;;;;5135571;28;20123;-48
2021/08/05 03:50:46;;;;;;;1.00;0.88;;;22.80;51.80;;;;;;5135395;28;20081;-50
2021/08/05 03:53:11;;;;;;;0.73;0.73;;;22.80;51.80;;;;;;5134956;28;20070;-51
2021/08/05 03:55:37;;;;;;;0.65;0.65;;;22.80;51.80;;;;;;5134889;28;20054;-48
2021/08/05 03:58:06;;;;;;;1.02;0.63;;;22.80;51.90;;;;;;5134842;28;20447;-50
2021/08/05 04:00:31;;;;;;;0.80;0.80;;;22.80;51.80;;;;;;5134796;28;20410;-51
2021/08/05 04:02:57;;;;;;;0.70;0.70;;;22.80;51.80;;;;;;5134983;28;20142;-50
2021/08/05 04:05:23;;;;;;;0.95;0.80;;;22.80;51.90;;;;;;5134677;28;20047;-51
2021/08/05 04:07:49;;;;;;;0.70;0.70;;;22.80;51.90;;;;;;5134948;28;20135;-50
2021/08/05 04:10:14;;;;;;;1.92;0.80;;;22.80;51.80;;;;;;5135140;28;20051;-51
2021/08/05 04:12:40;;;;;;;0.93;0.80;;;22.80;51.80;;;;;;5116105;28;20058;-53
2021/08/05 04:15:06;;;;;;;0.73;0.70;;;22.80;51.80;;;;;;5134609;28;20043;-47
2021/08/05 04:17:32;;;;;;;0.82;0.82;;;22.80;51.80;;;;;;5134387;28;20050;-52
2021/08/05 04:19:57;;;;;;;1.92;0.80;;;22.80;51.80;;;;;;5134758;28;20043;-51
2021/08/05 04:22:23;;;;;;;1.50;0.75;;;22.80;51.80;;;;;;5116395;28;20078;-53
2021/08/05 04:24:49;;;;;;;1.00;0.80;;;22.90;52.40;;;;;;5135009;28;20055;-50
2021/08/05 04:27:14;;;;;;;1.10;1.00;;;22.80;51.80;;;;;;5134210;28;20047;-51
2021/08/05 04:29:40;;;;;;;0.75;0.70;;;22.90;51.80;;;;;;5134363;28;20047;-50
2021/08/05 04:32:06;;;;;;;0.77;0.77;;;22.80;51.80;;;;;;5134300;28;20043;-51
2021/08/05 04:34:31;;;;;;;1.05;0.80;;;22.80;51.90;;;;;;5134239;28;20142;-52
2021/08/05 04:36:57;;;;;;;1.35;0.93;;;22.80;51.90;;;;;;5134379;28;20043;-51
2021/08/05 04:39:23;;;;;;;0.70;0.70;;;22.80;51.90;;;;;;5134069;28;20051;-48
2021/08/05 04:41:48;;;;;;;0.75;0.75;;;22.80;51.90;;;;;;5133761;28;20514;-50
2021/08/05 04:44:14;;;;;;;1.17;1.08;;;22.80;51.90;;;;;;5133676;28;20513;-52
2021/08/05 04:46:39;;;;;;;1.02;1.02;;;22.80;52.00;;;;;;5134166;28;20058;-52
2021/08/05 04:49:05;;;;;;;0.70;0.70;;;22.80;52.00;;;;;;5133141;27;20059;-49
2021/08/05 04:51:32;;;;;;;1.05;0.95;;;22.80;52.00;;;;;;5133484;28;20055;-51
2021/08/05 04:54:02;;;;;;;1.30;1.17;;;22.80;52.00;;;;;;5133836;28;20047;-50
2021/08/05 04:56:29;;;;;;;1.33;0.98;;;22.80;52.00;;;;;;5134201;28;20104;-53
2021/08/05 04:58:54;;;;;;;0.80;0.80;;;22.80;52.00;;;;;;5133840;28;20519;-50
2021/08/05 05:01:20;;;;;;;2.17;0.80;;;22.80;52.00;;;;;;5133930;28;20166;-50
2021/08/05 05:03:46;;;;;;;1.20;1.10;;;22.80;52.00;;;;;;5133749;28;20078;-49
2021/08/05 05:06:12;;;;;;;1.10;1.00;;;22.80;52.00;;;;;;5133934;28;20537;-50
2021/08/05 05:08:37;;;;;;;1.05;0.90;;;22.80;52.10;;;;;;5115289;28;20055;-53
2021/08/05 05:11:03;;;;;;;0.88;0.88;;;22.80;52.10;;;;;;5133896;28;20082;-52
2021/08/05 05:13:29;;;;;;;0.82;0.82;;;22.80;52.10;;;;;;5133682;28;20406;-54
2021/08/05 05:15:54;;;;;;;0.98;0.90;;;22.80;52.10;;;;;;5133941;28;20079;-50
2021/08/05 05:18:23;;;;;;;1.00;1.00;;;22.80;52.10;;;;;;5133583;28;20086;-54
2021/08/05 05:20:49;;;;;;;1.05;1.00;;;22.80;52.10;;;;;;5133504;28;20047;-51
2021/08/05 05:23:15;;;;;;;1.20;1.00;;;22.80;52.10;;;;;;5133566;28;20047;-50
2021/08/05 05:25:42;;;;;;;0.88;0.88;;;22.80;52.10;;;;;;5133814;28;20138;-49
2021/08/05 05:28:08;;;;;;;1.08;1.02;;;22.80;52.10;;;;;;5113605;28;20048;-50
2021/08/05 05:30:34;;;;;;;0.95;0.90;;;22.80;52.10;;;;;;5133354;28;20406;-50
2021/08/05 05:33:00;;;;;;;1.10;1.10;;;22.80;52.10;;;;;;5133439;28;20059;-51
2021/08/05 05:35:26;;;;;;;1.17;1.00;;;22.80;52.10;;;;;;5133396;28;20061;-50
2021/08/05 05:37:54;;;;;;;0.90;0.90;;;22.80;52.10;;;;;;5133282;28;20047;-47
2021/08/05 05:40:21;;;;;;;1.10;1.00;;;22.80;52.10;;;;;;5133519;28;20092;-49
2021/08/05 05:42:47;;;;;;;0.82;0.82;;;22.80;52.10;;;;;;5133551;28;20151;-48
2021/08/05 05:45:14;;;;;;;0.80;0.77;;;22.80;52.10;;;;;;5133247;28;20402;-45
2021/08/05 05:47:40;;;;;;;1.10;1.00;;;22.80;52.30;;;;;;5133539;28;20130;-50
2021/08/05 05:50:07;;;;;;;1.17;1.08;;;22.80;52.70;;;;;;5133081;28;20055;-51
2021/08/05 05:52:34;;;;;;;1.48;1.33;;;22.80;52.10;;;;;;5133336;28;20055;-48
2021/08/05 05:54:59;;;;;;;1.00;0.85;;;22.80;52.10;;;;;;5133409;28;20043;-48
2021/08/05 05:57:25;;;;;;;1.48;1.20;;;22.80;52.10;;;;;;5132983;28;20054;-54
2021/08/05 05:59:50;;;;;;;1.35;1.15;;;22.90;52.20;;;;;;5133393;28;20051;-47
2021/08/05 06:02:16;;;;;;;1.13;1.00;;;22.80;52.10;;;;;;5134949;27;20086;-49
2021/08/05 06:04:41;;;;;;;1.30;1.10;;;22.90;52.10;;;;;;5136639;28;20046;-48
2021/08/05 06:07:07;;;;;;;1.38;1.27;;;22.80;52.00;;;;;;5137058;28;20058;-49
2021/08/05 06:09:32;;;;;;;1.30;0.85;;;22.90;52.10;;;;;;5136982;28;20043;-48
2021/08/05 06:11:59;;;;;;;1.33;1.15;;;22.90;52.00;;;;;;5136531;28;20104;-51
2021/08/05 06:14:25;;;;;;;1.00;1.00;;;22.90;52.10;;;;;;5136348;28;20055;-51
2021/08/05 06:16:50;;;;;;;0.98;0.98;;;22.90;52.00;;;;;;5117943;28;20474;-50
2021/08/05 06:19:16;;;;;;;1.20;1.10;;;22.90;52.00;;;;;;5136199;28;20133;-49
2021/08/05 06:21:42;;;;;;;1.10;1.00;;;22.90;51.90;;;;;;5136530;28;20097;-47
2021/08/05 06:24:09;;;;;;;2.13;1.20;;;23.00;52.00;;;;;;5136121;28;20410;-53
2021/08/05 06:26:34;;;;;;;0.90;0.90;;;23.00;51.90;;;;;;5136015;28;20062;-52
2021/08/05 06:29:00;;;;;;;1.85;1.17;;;23.00;51.90;;;;;;5136348;28;20505;-46
2021/08/05 06:31:26;;;;;;;1.15;1.05;;;23.00;51.90;;;;;;5136183;28;20047;-53
2021/08/05 06:33:52;;;;;;;1.50;1.20;;;23.00;51.80;;;;;;5136175;28;20130;-52
2021/08/05 06:36:18;;;;;;;1.20;1.10;;;23.00;51.80;;;;;;5136187;28;20494;-49
2021/08/05 06:38:44;;;;;;;1.33;1.20;;;23.00;51.70;;;;;;5136491;28;20483;-54
2021/08/05 06:41:09;;;;;;;1.90;1.27;;;23.10;51.80;;;;;;5117641;28;20069;-55
2021/08/05 06:43:35;;;;;;;0.90;0.90;;;23.10;51.70;;;;;;5136408;28;20139;-50
2021/08/05 06:46:01;;;;;;;1.23;1.10;;;23.10;51.70;;;;;;5136052;28;20135;-50
2021/08/05 06:48:26;;;;;;;1.27;1.17;;;23.10;51.70;;;;;;5135935;28;20055;-49
2021/08/05 06:50:52;;;;;;;1.33;1.08;;;23.10;51.60;;;;;;5136494;28;20071;-50
2021/08/05 06:53:18;;;;;;;1.05;0.90;;;23.10;51.60;;;;;;5115625;28;20051;-47
2021/08/05 06:55:43;;;;;;;3.08;1.30;;;23.10;51.60;;;;;;5136305;28;20460;-48
2021/08/05 06:58:09;;;;;;;2.67;1.45;;;23.10;51.50;;;;;;5135634;28;20047;-48
2021/08/05 07:00:34;;;;;;;1.50;1.13;;;23.10;51.50;;;;;;5135822;28;20099;-47
2021/08/05 07:03:00;;;;;;;2.33;1.25;;;23.20;51.50;;;;;;5135944;28;20051;-54
2021/08/05 07:05:25;;;;;;;1.13;1.00;;;23.20;51.50;;;;;;5135666;28;20077;-57
2021/08/05 07:07:54;;;;;;;1.27;1.00;;;23.20;51.40;;;;;;5135590;28;20407;-50
2021/08/05 07:10:21;;;;;;;1.65;1.20;;;23.20;51.40;;;;;;5135940;28;20090;-51
2021/08/05 07:12:47;;;;;;;1.15;1.02;;;23.20;51.30;;;;;;5135264;27;20475;-51
2021/08/05 07:15:12;;;;;;;2.28;1.35;;;23.30;51.30;;;;;;5135487;28;20058;-49
2021/08/05 07:17:40;;;;;;;0.93;0.93;;;23.30;51.20;;;;;;5135222;28;20188;-51
2021/08/05 07:20:07;;;;;;;1.48;1.20;;;23.30;51.20;;;;;;5135362;28;20047;-48
2021/08/05 07:22:33;;;;;;;1.50;1.17;;;23.30;51.10;;;;;;5135287;28;20043;-50
2021/08/05 07:24:58;;;;;;;1.67;1.17;;;23.40;51.10;;;;;;5135383;28;20051;-48
2021/08/05 07:27:24;;;;;;;1.40;1.30;;;23.40;51.10;;;;;;5135682;28;20364;-53
2021/08/05 07:29:49;;;;;;;1.95;1.15;;;23.40;51.00;;;;;;5135135;28;20051;-49
2021/08/05 07:32:15;;;;;;;1.88;1.17;;;23.40;51.00;;;;;;5135254;28;20062;-52
2021/08/05 07:34:41;;;;;;;1.50;1.25;;;23.40;51.00;;;;;;5135201;28;20433;-54
2021/08/05 07:37:06;;;;;;;2.45;1.25;;;23.40;51.00;;;;;;5116642;28;20051;-48
2021/08/05 07:39:34;;;;;;;5.63;1.30;;;23.50;50.90;;;;;;5135326;28;20054;-49
2021/08/05 07:42:00;;;;;;;1.90;1.10;;;23.60;50.90;;;;;;5135065;28;20050;-48
2021/08/05 07:44:27;;;;;;;0.90;0.90;;;23.60;50.70;;;;;;5135065;28;20050;-49
2021/08/05 07:46:53;;;;;;;2.47;1.13;;;23.70;50.50;;;;;;5135074;28;20487;-51
2021/08/05 07:49:18;;;;;;;2.60;1.30;;;23.70;50.40;;;;;;5135229;28;20062;-48
2021/08/05 07:51:44;;;;;;;1.73;1.17;;;23.70;50.30;;;;;;5134743;28;20085;-55
2021/08/05 07:54:09;;;;;;;1.23;1.10;;;23.70;50.30;;;;;;5134795;28;20486;-48
2021/08/05 07:56:35;;;;;;;1.58;1.20;;;23.70;50.40;;;;;;5115869;28;20067;-47
2021/08/05 07:59:01;;;;;;;2.28;1.50;;;23.60;50.40;;;;;;5114948;28;20055;-46
2021/08/05 08:01:26;;;;;;;3.60;1.42;;;23.70;50.40;;;;;;5134463;27;20051;-50
2021/08/05 08:03:52;;;;;;;1.77;1.10;;;23.70;50.40;;;;;;5134523;28;20047;-51
2021/08/05 08:06:17;;;;;;;1.83;1.08;;;23.70;50.40;;;;;;5134804;28;20047;-54
2021/08/05 08:08:43;;;;;;;2.50;1.45;;;23.70;50.40;;;;;;5132852;28;20062;-51
2021/08/05 08:11:09;;;;;;;1.88;1.40;;;23.70;50.30;;;;;;5134397;28;20180;-48
2021/08/05 08:13:34;;;;;;;2.00;1.10;;;23.70;50.30;;;;;;5134968;28;20493;-52
2021/08/05 08:16:00;;;;;;;3.00;1.40;;;23.80;50.30;;;;;;5134833;28;20051;-51
2021/08/05 08:18:26;;;;;;;1.67;1.40;;;23.70;50.20;;;;;;5134254;28;20055;-50
2021/08/05 08:20:56;;;;;;;2.58;1.20;;;23.80;50.20;;;;;;5134286;28;20055;-51
2021/08/05 08:23:22;;;;;;;1.50;1.20;;;23.70;50.10;;;;;;5134685;27;20495;-50
2021/08/05 08:25:48;;;;;;;4.93;1.42;;;23.80;50.20;;;;;;5133902;28;20053;-49
2021/08/05 08:28:14;;;;;;;1.25;1.15;;;23.80;50.20;;;;;;5134603;28;20038;-53
2021/08/05 08:30:40;;;;;;;2.70;1.63;;;23.80;50.10;;;;;;5115653;28;20043;-54
2021/08/05 08:33:06;;;;;;;2.88;1.30;;;23.80;50.10;;;;;;5134273;28;20047;-54
2021/08/05 08:35:32;;;;;;;2.05;1.25;;;23.80;50.10;;;;;;5134196;28;20134;-54
2021/08/05 08:37:57;;;;;;;2.47;1.38;;;23.80;50.10;;;;;;5134083;28;20047;-54
2021/08/05 08:40:23;;;;;;;1.40;1.13;;;23.80;50.10;;;;;;5134093;28;20174;-52
2021/08/05 08:42:49;;;;;;;2.10;1.65;;;23.80;50.10;;;;;;5134040;28;20051;-49
2021/08/05 08:45:15;;;;;;;4.28;1.55;;;23.80;50.00;;;;;;5133926;28;20502;-52
2021/08/05 08:47:43;;;;;;;1.77;1.40;;;23.90;50.00;;;;;;5134246;28;20080;-52
2021/08/05 08:50:09;;;;;;;1.52;1.10;;;23.90;49.90;;;;;;5134188;28;20535;-52
2021/08/05 08:52:37;;;;;;;2.15;1.20;;;24.00;49.90;;;;;;5134450;28;20047;-54
2021/08/05 08:55:04;;;;;;;2.08;1.10;;;24.00;49.80;;;;;;5133758;28;20051;-49
2021/08/05 08:57:32;;;;;;;1.95;1.27;;;24.00;49.70;;;;;;5133947;28;20086;-48
2021/08/05 08:59:59;;;;;;;4.22;1.10;;;24.00;49.70;;;;;;5115677;28;20051;-53
2021/08/05 09:02:26;;;;;;;2.40;1.50;;;24.00;49.60;;;;;;5133743;28;20372;-49
2021/08/05 09:04:52;;;;;;;1.98;1.42;;;24.10;49.50;;;;;;5134307;28;20078;-49
2021/08/05 09:07:18;;;;;;;1.83;1.13;;;24.10;49.50;;;;;;5134273;28;20047;-50
2021/08/05 09:09:43;;;;;;;3.00;1.42;;;24.10;49.40;;;;;;5133728;28;20403;-49
2021/08/05 09:12:15;;;;;;;4.43;1.60;;;24.20;49.40;;;;;;5134112;28;20043;-50
2021/08/05 09:14:52;;;;;;;3.15;1.10;;;24.20;49.80;;;;;;5133568;28;20057;-53
2021/08/05 09:17:24;;;;;;;3.97;1.70;;;24.20;49.10;;;;;;5133773;28;20074;-50
2021/08/05 09:19:52;;;;;;;2.22;1.40;;;24.30;49.10;;;;;;5133868;28;20100;-51
2021/08/05 09:22:32;;;;;;;3.83;1.38;;;24.30;49.00;;;;;;5133542;28;20046;-51
2021/08/05 09:24:59;;;;;;;2.10;1.33;;;24.30;49.00;;;;;;5133389;28;20047;-51
2021/08/05 09:27:32;;;;;;;2.53;1.50;;;24.30;48.90;;;;;;5133696;28;20081;-52
2021/08/05 09:29:59;;;;;;;1.83;1.42;;;24.30;48.90;;;;;;5114995;28;20079;-51
2021/08/05 09:32:26;;;;;;;1.67;1.20;;;24.30;48.80;;;;;;5133846;28;20054;-51
2021/08/05 09:35:06;;;;;;;2.50;1.25;;;24.40;48.80;;;;;;5133313;27;20388;-50
2021/08/05 09:37:39;;;;;;;2.45;1.27;;;24.40;48.80;;;;;;5136914;28;20050;-49
2021/08/05 09:40:13;;;;;;;2.25;1.33;;;24.40;48.80;;;;;;5136940;28;20063;-49
2021/08/05 09:42:39;;;;;;;3.17;1.65;;;24.40;48.70;;;;;;5136807;28;20057;-50
2021/08/05 09:45:07;;;;;;;2.53;1.40;;;24.40;48.70;;;;;;5136910;28;20130;-49
2021/08/05 09:47:42;;;;;;;2.05;1.27;;;24.40;48.60;;;;;;5117326;28;20112;-51
2021/08/05 09:50:09;;;;;;;1.85;1.60;;;24.40;49.20;;;;;;5137139;28;20062;-48
2021/08/05 09:52:35;;;;;;;2.58;1.45;;;24.40;48.60;;;;;;5117737;28;20086;-50
2021/08/05 09:55:05;;;;;;;1.25;1.15;;;24.40;48.60;;;;;;5137012;28;20475;-48
2021/08/05 09:57:33;;;;;;;2.45;1.27;;;24.40;48.70;;;;;;5136273;28;20047;-54
2021/08/05 10:00:04;;;;;;;3.38;1.40;;;24.40;48.70;;;;;;5136624;28;20395;-50
2021/08/05 10:02:52;;;;;;;3.78;1.30;;;24.40;48.70;;;;;;5136636;28;20077;-50
2021/08/05 10:05:23;;;;;;;2.20;1.20;;;24.40;48.60;;;;;;5136358;28;20062;-49
2021/08/05 10:07:58;;;;;;;4.28;1.65;;;24.40;48.60;;;;;;5135064;28;20402;-53
2021/08/05 10:10:26;;;;;;;2.95;1.25;;;24.40;48.60;;;;;;5136584;28;20189;-50
2021/08/05 10:12:54;;;;;;;4.28;1.40;;;24.40;48.60;;;;;;5117932;28;20072;-53
2021/08/05 10:15:20;;;;;;;2.35;1.67;;;24.40;48.60;;;;;;5136413;28;20133;-54
2021/08/05 10:17:53;;;;;;;3.92;1.40;;;24.40;48.60;;;;;;5115969;28;20150;-52
2021/08/05 10:20:20;;;;;;;2.95;1.52;;;24.40;48.60;;;;;;5117944;28;20062;-55
2021/08/05 10:22:47;;;;;;;3.78;1.30;;;24.50;48.50;;;;;;5117915;28;20047;-50
2021/08/05 10:25:15;;;;;;;3.35;1.45;;;24.50;48.50;;;;;;5136128;28;20048;-53
2021/08/05 10:27:41;;;;;;;3.97;1.30;;;24.50;48.50;;;;;;5136153;28;20051;-49
2021/08/05 10:30:16;;;;;;;3.00;1.23;;;24.50;48.40;;;;;;5136171;28;20047;-50
2021/08/05 10:32:44;;;;;;;2.45;1.48;;;24.50;48.40;;;;;;5136384;28;20055;-51
2021/08/05 10:35:12;;;;;;;3.28;1.23;;;24.50;48.40;;;;;;5135998;28;20522;-48
2021/08/05 10:37:38;;;;;;;2.53;1.50;;;24.50;48.30;;;;;;5135723;28;20108;-53
2021/08/05 10:40:06;;;;;;;1.85;1.25;;;24.60;48.40;;;;;;5135976;28;20459;-51
2021/08/05 10:42:33;;;;;;;2.42;1.20;;;24.50;48.30;;;;;;5136335;28;20043;-51
2021/08/05 10:44:59;;;;;;;4.47;1.20;;;24.50;48.30;;;;;;5136394;28;20101;-53
2021/08/05 10:47:28;;;;;;;2.30;1.20;;;24.60;48.20;;;;;;5134859;27;20138;-54
2021/08/05 10:49:56;;;;;;;2.95;1.52;;;24.60;48.20;;;;;;5118169;28;20057;-51
2021/08/05 10:52:34;;;;;;;2.28;1.23;;;24.60;48.10;;;;;;5135852;28;20096;-53
2021/08/05 10:55:02;;;;;;;2.15;1.35;;;24.70;48.20;;;;;;5136093;28;20071;-54
2021/08/05 10:57:28;;;;;;;2.97;1.33;;;24.70;48.10;;;;;;5135940;28;20051;-51
2021/08/05 11:00:13;;;;;;;1.52;1.20;;;24.70;48.00;;;;;;5136098;28;20092;-52
2021/08/05 11:02:52;;;;;;;1.48;1.15;;;24.70;47.90;;;;;;5136104;28;20070;-54
2021/08/05 11:05:21;;;;;;;2.38;1.38;;;24.70;47.80;;;;;;5135734;28;20055;-49
2021/08/05 11:07:47;;;;;;;2.55;1.10;;;24.80;47.80;;;;;;5135665;28;20909;-46
2021/08/05 11:10:13;;;;;;;2.58;1.30;;;24.80;47.70;;;;;;5135456;28;20051;-49
2021/08/05 11:12:49;;;;;;;1.85;1.30;;;24.80;47.70;;;;;;5135807;28;20043;-51
2021/08/05 11:15:25;;;;;;;1.40;1.13;;;24.80;47.70;;;;;;5135537;28;20043;-51
2021/08/05 11:18:09;;;;;;;1.40;1.30;;;24.90;47.70;;;;;;5135671;28;20047;-51
2021/08/05 11:20:46;;;;;;;2.47;1.25;;;24.90;47.60;;;;;;5135956;28;20138;-50
2021/08/05 11:23:39;;;;;;;2.75;1.42;;;24.90;47.60;;;;;;5135637;28;20055;-50
2021/08/05 11:26:10;;;;;;;1.10;1.00;;;24.90;47.50;;;;;;5135148;28;20066;-48
2021/08/05 11:28:46;;;;;;;2.90;1.27;;;24.90;48.00;;;;;;5135867;28;20051;-51
2021/08/05 11:31:26;;;;;;;3.05;1.38;;;25.00;47.40;;;;;;5135464;28;20122;-54
2021/08/05 11:33:57;;;;;;;2.72;1.40;;;25.00;47.40;;;;;;5135464;28;20055;-53
2021/08/05 11:36:44;;;;;;;1.45;1.23;;;25.00;47.30;;;;;;5135606;28;20426;-50
2021/08/05 11:39:15;;;;;;;2.20;1.38;;;25.00;47.30;;;;;;5135196;28;20075;-52
2021/08/05 11:41:43;;;;;;;1.90;1.40;;;25.00;47.20;;;;;;5135441;28;20055;-52
2021/08/05 11:44:41;;;;;;;2.35;1.27;;;25.10;47.20;;;;;;5134956;28;20043;-51
2021/08/05 11:47:29;;;;;;;3.03;1.42;;;25.10;47.10;;;;;;5134806;28;20159;-50
2021/08/05 11:50:15;;;;;;;2.33;1.58;;;25.10;47.10;;;;;;5135222;28;20129;-50
2021/08/05 11:52:43;;;;;;;2.08;1.10;;;25.10;47.10;;;;;;5135045;28;20138;-50
2021/08/05 11:55:13;;;;;;;1.15;1.02;;;25.00;47.10;;;;;;5134729;28;20074;-52
2021/08/05 11:57:44;;;;;;;1.83;1.17;;;25.00;47.10;;;;;;5134911;28;20937;-52
2021/08/05 12:00:19;;;;;;;3.35;1.20;;;25.00;47.10;;;;;;5134726;27;20075;-49
2021/08/05 12:02:51;;;;;;;1.38;1.27;;;25.00;47.20;;;;;;5134895;28;20475;-50
2021/08/05 12:05:20;;;;;;;2.13;1.20;;;25.00;47.30;;;;;;5134854;28;20082;-50
2021/08/05 12:07:50;;;;;;;2.28;1.30;;;24.90;47.30;;;;;;5134756;28;20043;-48
2021/08/05 12:10:24;;;;;;;2.53;1.10;;;24.90;47.30;;;;;;5134813;28;20043;-54
2021/08/05 12:13:04;;;;;;;1.95;1.15;;;24.90;47.30;;;;;;5134938;28;20051;-49
2021/08/05 12:15:35;;;;;;;1.60;1.25;;;24.90;47.30;;;;;;5134398;28;20055;-52
2021/08/05 12:18:16;;;;;;;2.20;1.00;;;24.90;47.30;;;;;;5134504;28;20051;-52
2021/08/05 12:20:44;;;;;;;1.20;0.98;;;24.90;47.30;;;;;;5116042;28;20058;-51
2021/08/05 12:23:17;;;;;;;2.15;1.17;;;24.90;47.30;;;;;;5134415;28;20104;-47
2021/08/05 12:28:19;;;;;;;1.45;1.15;;;25.00;47.20;;;;;;5133912;28;20522;-50
2021/08/05 12:30:51;;;;;;;2.80;1.05;;;25.00;47.20;;;;;;5134521;28;20042;-49
2021/08/05 12:33:21;;;;;;;1.40;1.02;;;25.00;47.10;;;;;;5134190;28;20062;-49
2021/08/05 12:36:07;;;;;;;2.65;1.27;;;25.00;47.10;;;;;;5134082;28;20414;-51
2021/08/05 12:38:48;;;;;;;2.47;1.38;;;25.10;47.10;;;;;;5133978;28;20138;-51
2021/08/05 12:41:17;;;;;;;1.88;1.38;;;25.10;47.00;;;;;;5134092;28;20062;-51
2021/08/05 12:43:45;;;;;;;1.73;1.13;;;25.10;46.90;;;;;;5115888;28;20119;-50
2021/08/05 12:46:11;;;;;;;1.33;1.23;;;25.10;46.90;;;;;;5134107;28;20071;-46
2021/08/05 12:48:39;;;;;;;1.75;1.30;;;25.10;46.90;;;;;;5133613;28;20138;-48
2021/08/05 12:51:05;;;;;;;1.73;1.48;;;25.20;46.90;;;;;;5133846;28;20057;-52
2021/08/05 12:53:33;;;;;;;3.05;1.10;;;25.20;46.90;;;;;;5134476;28;20051;-48
2021/08/05 12:56:03;;;;;;;1.83;1.20;;;25.10;46.80;;;;;;5133944;28;20090;-49